createdAt,value
2023-02-17T00:04:56.875Z,92.40
2023-02-17T00:10:01.628Z,100.20
2023-02-17T00:15:13.376Z,85.10
2023-02-17T00:20:17.386Z,82.60
2023-02-17T00:25:21.345Z,73.50
2023-02-17T00:30:25.164Z,60.50
2023-02-17T00:35:31.657Z,67.80
2023-02-17T00:40:35.488Z,75.50
2023-02-17T00:45:42.258Z,78.30
2023-02-17T00:50:46.729Z,76.00
2023-02-17T00:55:50.719Z,76.10
2023-02-17T01:01:01.782Z,74.30
2023-02-17T01:06:08.377Z,84.90
2023-02-17T01:11:24.709Z,70.90
2023-02-17T01:16:35.602Z,74.90
2023-02-17T01:21:40.036Z,82.10
2023-02-17T01:26:49.127Z,61.00
2023-02-17T01:31:53.430Z,71.50
2023-02-17T01:36:57.900Z,80.30
2023-02-17T01:42:04.077Z,78.30
2023-02-17T01:47:13.357Z,82.80
2023-02-17T01:52:23.746Z,78.70
2023-02-17T01:57:31.323Z,76.20
2023-02-17T02:02:38.048Z,66.90
2023-02-17T02:07:43.184Z,74.30
2023-02-17T02:12:50.127Z,78.20
2023-02-17T02:18:21.898Z,68.30
2023-02-17T02:23:47.937Z,62.70
2023-02-17T02:29:48.713Z,63.90
2023-02-17T02:35:02.150Z,71.60
2023-02-17T02:40:09.299Z,77.10
2023-02-17T02:45:14.428Z,60.20
2023-02-17T02:50:36.416Z,64.30
2023-02-17T02:56:29.397Z,76.50
2023-02-17T03:02:22.932Z,80.20
2023-02-17T03:07:40.322Z,68.80
2023-02-17T03:12:45.629Z,76.40
2023-02-17T03:17:49.530Z,72.80
2023-02-17T03:22:55.189Z,68.80
2023-02-17T03:28:04.377Z,62.30
2023-02-17T03:33:09.137Z,60.40
2023-02-17T03:38:13.048Z,63.50
2023-02-17T03:43:18.109Z,59.40
2023-02-17T03:48:33.119Z,62.30
2023-02-17T03:53:40.453Z,61.70
2023-02-17T03:58:44.402Z,59.70
2023-02-17T04:03:48.516Z,63.80
2023-02-17T04:08:56.412Z,66.40
2023-02-17T04:14:00.460Z,67.80
2023-02-17T04:19:04.384Z,65.40
2023-02-17T04:24:08.545Z,59.20
2023-02-17T04:29:12.316Z,55.00
2023-02-17T04:34:17.663Z,61.00
2023-02-17T04:39:22.161Z,61.50
2023-02-17T04:44:26.217Z,59.40
2023-02-17T04:49:31.205Z,60.50
2023-02-17T04:54:35.233Z,51.20
2023-02-17T04:59:40.904Z,46.60
2023-02-17T05:04:46.445Z,53.00
2023-02-17T05:09:50.693Z,47.30
2023-02-17T05:14:58.331Z,43.50
2023-02-17T05:20:09.276Z,44.60
2023-02-17T05:25:15.716Z,41.90
2023-02-17T05:30:20.089Z,61.80
2023-02-17T05:35:25.242Z,54.30
2023-02-17T05:40:35.337Z,54.30
2023-02-17T05:45:39.162Z,47.20
2023-02-17T05:50:46.131Z,49.60
2023-02-17T05:55:49.967Z,44.30
2023-02-17T06:00:54.088Z,43.20
2023-02-17T06:05:58.235Z,50.70
2023-02-17T06:11:02.355Z,44.90
2023-02-17T06:16:12.403Z,42.20
2023-02-17T06:21:16.264Z,39.40
2023-02-17T06:26:23.672Z,40.90
2023-02-17T06:31:30.560Z,41.50
2023-02-17T06:36:34.565Z,41.20
2023-02-17T06:41:38.543Z,39.10
2023-02-17T06:46:42.413Z,40.40
2023-02-17T06:51:52.215Z,43.40
2023-02-17T06:56:59.108Z,45.40
2023-02-17T07:02:05.941Z,45.10
2023-02-17T07:07:10.672Z,44.30
2023-02-17T07:12:14.642Z,40.70
2023-02-17T07:17:18.339Z,40.60
2023-02-17T07:22:22.181Z,44.30
2023-02-17T07:27:26.150Z,45.10
2023-02-17T07:32:32.856Z,40.20
2023-02-17T07:37:37.714Z,43.40
2023-02-17T07:42:41.527Z,37.80
2023-02-17T07:47:47.569Z,42.30
2023-02-17T07:52:51.779Z,43.20
2023-02-17T07:57:55.666Z,41.20
2023-02-17T08:02:59.732Z,41.30
2023-02-17T08:08:22.064Z,43.80
2023-02-17T08:13:28.503Z,43.00
2023-02-17T08:18:36.537Z,42.60
2023-02-17T08:23:43.330Z,53.10
2023-02-17T08:28:50.243Z,53.30
2023-02-17T08:33:54.357Z,51.10
2023-02-17T08:38:59.201Z,47.40
2023-02-17T08:44:07.282Z,40.80
2023-02-17T08:49:11.349Z,41.90
2023-02-17T08:54:16.125Z,35.90
2023-02-17T08:59:20.665Z,39.10
2023-02-17T09:04:25.023Z,42.50
2023-02-17T09:09:29.417Z,39.30
2023-02-17T09:14:33.760Z,33.30
2023-02-17T09:19:41.380Z,32.00
2023-02-17T09:24:47.552Z,37.20
2023-02-17T09:29:51.500Z,32.30
2023-02-17T09:34:55.659Z,34.50
2023-02-17T09:39:59.678Z,36.10
2023-02-17T09:45:12.841Z,33.20
2023-02-17T09:50:29.030Z,38.10
2023-02-17T09:55:50.521Z,32.10
2023-02-17T10:00:59.327Z,31.50
2023-02-17T10:06:19.689Z,33.10
2023-02-17T10:11:55.444Z,26.40
2023-02-17T10:17:27.937Z,32.30
2023-02-17T10:28:11.342Z,28.50
2023-02-17T10:33:28.696Z,35.80
2023-02-17T10:38:54.984Z,33.30
2023-02-17T10:44:01.043Z,25.10
2023-02-17T10:49:07.134Z,25.30
2023-02-17T10:54:22.276Z,25.30
2023-02-17T10:59:47.441Z,28.50
2023-02-17T11:04:55.492Z,22.50
2023-02-17T11:10:02.429Z,21.90
2023-02-17T11:15:16.187Z,19.20
2023-02-17T11:20:40.393Z,20.30
2023-02-17T11:25:44.835Z,19.10
2023-02-17T11:30:55.087Z,20.30
2023-02-17T11:35:59.899Z,20.50
2023-02-17T11:41:07.340Z,19.20
2023-02-17T11:46:39.518Z,19.80
2023-02-17T11:52:05.261Z,17.00
2023-02-17T11:57:39.693Z,18.10
2023-02-17T12:03:25.625Z,18.70
2023-02-17T12:09:17.488Z,15.70
2023-02-17T12:14:59.033Z,16.40
2023-02-17T12:20:25.477Z,13.60
2023-02-17T12:25:36.204Z,11.60
2023-02-17T12:31:09.899Z,14.20
2023-02-17T12:36:17.712Z,12.60
2023-02-17T12:41:25.677Z,14.20
2023-02-17T12:46:35.677Z,16.70
2023-02-17T12:51:48.874Z,13.50
2023-02-17T12:57:22.063Z,19.40
2023-02-17T13:02:26.940Z,10.80
2023-02-17T13:08:00.807Z,13.30
2023-02-17T13:13:10.185Z,10.40
2023-02-17T13:18:32.294Z,13.10
2023-02-17T13:23:41.516Z,10.90
2023-02-17T13:28:46.203Z,13.50
2023-02-17T13:33:52.973Z,14.30
2023-02-17T13:39:01.410Z,15.90
2023-02-17T13:44:29.926Z,11.80
2023-02-17T13:49:35.690Z,15.50
2023-02-17T13:54:39.670Z,14.20
2023-02-17T13:59:43.743Z,13.00
2023-02-17T14:04:48.015Z,14.80
2023-02-17T14:09:55.283Z,14.10
2023-02-17T14:14:59.184Z,13.70
2023-02-17T14:20:04.679Z,13.50
2023-02-17T14:25:14.284Z,15.80
2023-02-17T14:30:38.707Z,15.20
2023-02-17T14:36:01.426Z,15.00
2023-02-17T14:41:07.275Z,12.30
2023-02-17T14:46:12.287Z,12.10
2023-02-17T14:51:20.306Z,14.10
2023-02-17T14:56:37.565Z,13.60
2023-02-17T15:01:42.002Z,13.80
2023-02-17T15:06:53.295Z,15.50
2023-02-17T15:11:58.476Z,13.50
2023-02-17T15:17:03.212Z,13.60
2023-02-17T15:22:08.695Z,14.90
2023-02-17T15:27:17.761Z,11.20
2023-02-17T15:32:25.502Z,10.60
2023-02-17T15:37:30.016Z,9.70
2023-02-17T15:42:34.942Z,11.30
2023-02-17T15:47:39.600Z,20.50
2023-02-17T15:52:46.590Z,10.30
2023-02-17T15:57:58.786Z,8.30
2023-02-17T16:03:06.286Z,8.40
2023-02-17T16:08:15.907Z,9.60
2023-02-17T16:13:20.896Z,10.30
2023-02-17T16:18:28.063Z,10.20
2023-02-17T16:23:33.221Z,8.50
2023-02-17T16:28:37.387Z,7.80
2023-02-17T16:33:42.242Z,10.20
2023-02-17T16:38:54.419Z,7.20
2023-02-17T16:43:59.474Z,9.90
2023-02-17T16:49:36.978Z,10.20
2023-02-17T16:54:41.377Z,7.20
2023-02-17T16:59:47.674Z,8.30
2023-02-17T17:04:57.209Z,8.00
2023-02-17T17:10:57.740Z,10.30
2023-02-17T17:16:37.936Z,11.70
2023-02-17T17:21:54.714Z,14.70
2023-02-17T17:27:05.133Z,8.80
2023-02-17T17:32:16.588Z,11.80
2023-02-17T19:18:35.926Z,3.00
2023-02-17T19:23:42.364Z,6.90
2023-02-17T19:28:47.198Z,8.10
2023-02-17T19:33:54.334Z,4.90
2023-02-17T19:39:01.814Z,5.80
2023-02-17T19:44:50.354Z,4.50
2023-02-17T19:50:17.807Z,5.00
2023-02-17T19:55:28.732Z,4.40
2023-02-17T20:00:42.301Z,4.60
2023-02-17T20:05:56.273Z,4.40
2023-02-17T20:11:10.429Z,6.10
2023-02-17T20:16:27.451Z,3.00
2023-02-17T20:22:23.736Z,2.90
2023-02-17T20:27:32.966Z,2.90
2023-02-17T20:32:42.123Z,4.30
2023-02-17T20:37:56.042Z,4.10
2023-02-17T20:43:09.370Z,3.70
2023-02-17T20:48:28.666Z,2.90
2023-02-17T20:53:34.615Z,2.80
2023-02-17T20:58:40.431Z,4.40
2023-02-17T21:03:46.027Z,4.00
2023-02-17T21:08:52.875Z,4.70
2023-02-17T21:13:58.797Z,5.10
2023-02-17T21:19:04.906Z,4.50
2023-02-17T21:24:10.033Z,5.80
2023-02-17T21:29:14.834Z,5.20
2023-02-17T21:34:20.014Z,5.10
2023-02-17T21:39:24.762Z,5.70
2023-02-17T21:44:48.946Z,4.70
2023-02-17T21:49:55.259Z,3.70
2023-02-17T21:55:01.742Z,5.90
2023-02-17T22:00:07.184Z,3.70
2023-02-17T22:05:17.552Z,5.00
2023-02-17T22:10:21.497Z,5.50
2023-02-17T22:15:25.502Z,4.30
2023-02-17T22:20:29.324Z,5.00
2023-02-17T22:25:33.277Z,6.30
2023-02-17T22:30:37.261Z,3.60
2023-02-17T22:35:41.270Z,6.30
2023-02-17T22:40:45.257Z,14.00
2023-02-17T22:45:49.249Z,3.30
2023-02-17T22:50:53.314Z,3.40
2023-02-17T22:55:58.214Z,3.40
2023-02-17T23:01:09.347Z,3.40
2023-02-17T23:06:15.653Z,2.90
2023-02-17T23:11:42.790Z,2.00
2023-02-17T23:16:47.077Z,2.90
2023-02-17T23:21:54.029Z,2.00
2023-02-17T23:27:00.773Z,1.80
2023-02-17T23:32:05.392Z,2.60
2023-02-17T23:37:09.468Z,2.30
2023-02-17T23:42:13.366Z,1.90
2023-02-17T23:47:17.302Z,2.90
2023-02-17T23:52:21.425Z,1.90
2023-02-17T23:57:27.094Z,7.40
